West Glenville, New York
Current Conditions -  °F | °C
As of 5:35 PM on Friday 24 Oct 2014 (Local Time) from KNY0 Reporting Station
Overcast Overcast  
Wind Chill: 53°   Ceiling: 8500
Heat Index: 53°   Visibility: 10mi
Dew Point: 43°   Wind: 6mph
Humidity: 71%   Direction: 360°N
Pressure: 29.82"   Gusts: NA
Location:  42.9741°N, 74.1271°W
Report Text: KNY0 242135Z AUTO 36005KT 10SM SCT055 OVC085 11/06 A2982 RMK AO2 T01140063
Loading
Personal Weather Stations






























Interactive Weather Map
Tropical Storm Tracking
New forecast layout! Learn more

10-Day Weather Forecast

Advertisements
Track Severe Weather on mobile